createdAt,value
2022-12-25T00:01:16.820Z,75.50
2022-12-25T00:03:43.752Z,75.49
2022-12-25T00:06:10.440Z,74.92
2022-12-25T00:08:38.033Z,75.04
2022-12-25T00:11:08.088Z,74.87
2022-12-25T00:13:34.651Z,75.05
2022-12-25T00:16:05.938Z,75.04
2022-12-25T00:18:32.342Z,74.71
2022-12-25T00:21:04.701Z,74.86
2022-12-25T00:23:31.474Z,74.85
2022-12-25T00:25:58.569Z,74.97
2022-12-25T00:28:25.856Z,75.07
2022-12-25T00:30:52.429Z,75.01
2022-12-25T00:33:18.923Z,75.24
2022-12-25T00:35:45.530Z,75.10
2022-12-25T00:38:11.939Z,75.42
2022-12-25T00:40:43.899Z,75.06
2022-12-25T00:43:10.384Z,74.59
2022-12-25T00:45:36.940Z,74.42
2022-12-25T00:48:03.541Z,74.49
2022-12-25T00:50:29.916Z,74.67
2022-12-25T00:52:56.365Z,75.10
2022-12-25T00:55:22.771Z,75.08
2022-12-25T00:57:49.187Z,75.07
2022-12-25T01:00:16.381Z,74.75
2022-12-25T01:02:42.915Z,74.79
2022-12-25T01:05:09.664Z,74.61
2022-12-25T01:07:36.059Z,74.95
2022-12-25T01:10:21.114Z,75.62
2022-12-25T01:12:47.600Z,76.02
2022-12-25T01:15:14.058Z,75.96
2022-12-25T01:17:42.070Z,75.40
2022-12-25T01:20:09.774Z,75.15
2022-12-25T01:22:36.129Z,75.26
2022-12-25T01:25:02.673Z,75.07
2022-12-25T01:27:29.028Z,74.99
2022-12-25T01:29:55.381Z,75.16
2022-12-25T01:32:21.706Z,75.69
2022-12-25T01:34:52.073Z,75.38
2022-12-25T01:37:22.205Z,75.43
2022-12-25T01:39:48.558Z,75.50
2022-12-25T01:42:19.966Z,75.83
2022-12-25T01:44:46.307Z,75.38
2022-12-25T01:47:14.725Z,75.79
2022-12-25T01:49:44.015Z,75.56
2022-12-25T01:52:18.789Z,76.01
2022-12-25T01:54:55.706Z,75.33
2022-12-25T01:57:28.672Z,75.07
2022-12-25T01:59:57.470Z,75.07
2022-12-25T02:02:25.107Z,75.12
2022-12-25T02:04:55.851Z,75.10
2022-12-25T02:07:25.553Z,75.24
2022-12-25T02:09:52.817Z,74.68
2022-12-25T02:12:27.032Z,75.00
2022-12-25T02:15:02.891Z,75.47
2022-12-25T02:17:38.541Z,75.05
2022-12-25T02:20:35.356Z,74.96
2022-12-25T02:23:13.157Z,74.97
2022-12-25T02:25:52.872Z,75.07
2022-12-25T02:28:32.413Z,74.87
2022-12-25T02:31:10.722Z,74.66
2022-12-25T02:34:05.510Z,74.82
2022-12-25T02:36:57.397Z,74.89
2022-12-25T02:39:58.767Z,74.62
2022-12-25T02:43:02.648Z,74.63
2022-12-25T02:45:54.739Z,75.04
2022-12-25T02:48:43.186Z,74.53
2022-12-25T02:51:33.326Z,74.86
2022-12-25T02:54:22.491Z,75.01
2022-12-25T02:57:09.693Z,74.62
2022-12-25T02:59:57.335Z,74.52
2022-12-25T03:02:43.677Z,74.48
2022-12-25T03:05:33.229Z,75.59
2022-12-25T03:08:04.556Z,74.83
2022-12-25T03:10:51.645Z,75.40
2022-12-25T03:13:28.103Z,74.76
2022-12-25T03:16:27.809Z,74.74
2022-12-25T03:18:56.818Z,74.52
2022-12-25T03:21:41.880Z,74.70
2022-12-25T03:24:26.705Z,74.84
2022-12-25T03:26:56.506Z,74.69
2022-12-25T03:29:47.157Z,74.88
2022-12-25T03:32:26.697Z,75.02
2022-12-25T03:35:19.087Z,74.57
2022-12-25T03:38:07.262Z,74.90
2022-12-25T03:41:23.029Z,75.37
2022-12-25T03:44:30.158Z,75.10
2022-12-25T03:47:23.866Z,74.95
2022-12-25T03:50:18.424Z,75.00
2022-12-25T03:53:05.588Z,74.91
2022-12-25T03:55:51.129Z,74.97
2022-12-25T03:58:38.912Z,74.49
2022-12-25T04:01:23.789Z,74.49
2022-12-25T04:04:08.504Z,74.20
2022-12-25T04:06:53.521Z,74.16
2022-12-25T04:09:38.459Z,74.38
2022-12-25T04:12:23.709Z,74.63
2022-12-25T04:15:08.630Z,74.49
2022-12-25T04:17:53.685Z,74.62
2022-12-25T04:20:38.727Z,74.13
2022-12-25T04:23:23.521Z,74.63
2022-12-25T04:26:08.493Z,75.16
2022-12-25T04:28:53.288Z,74.70
2022-12-25T04:31:39.825Z,75.08
2022-12-25T04:34:35.578Z,74.86
2022-12-25T04:37:01.888Z,74.94
2022-12-25T04:39:28.209Z,75.10
2022-12-25T04:41:54.562Z,74.70
2022-12-25T04:44:20.932Z,74.65
2022-12-25T04:46:47.304Z,74.07
2022-12-25T04:49:13.796Z,74.36
2022-12-25T04:51:40.203Z,74.33
2022-12-25T04:54:06.546Z,74.39
2022-12-25T04:56:33.391Z,74.16
2022-12-25T04:58:59.951Z,73.88
2022-12-25T05:01:26.517Z,74.24
2022-12-25T05:03:52.986Z,74.21
2022-12-25T05:06:19.715Z,74.22
2022-12-25T05:08:46.249Z,74.67
2022-12-25T05:11:14.906Z,75.21
2022-12-25T05:13:41.882Z,75.64
2022-12-25T05:16:12.359Z,75.89
2022-12-25T05:18:38.760Z,75.67
2022-12-25T05:21:07.709Z,75.49
2022-12-25T05:23:34.518Z,75.44
2022-12-25T05:26:07.881Z,75.88
2022-12-25T05:28:35.494Z,75.82
2022-12-25T05:31:01.877Z,75.63
2022-12-25T05:33:28.249Z,75.57
2022-12-25T05:35:54.588Z,75.55
2022-12-25T05:38:20.988Z,75.65
2022-12-25T05:40:47.361Z,75.68
2022-12-25T05:43:13.723Z,75.55
2022-12-25T05:45:40.046Z,75.40
2022-12-25T05:48:06.604Z,75.50
2022-12-25T05:50:33.053Z,75.46
2022-12-25T05:53:05.944Z,76.28
2022-12-25T05:55:35.781Z,76.24
2022-12-25T05:58:02.266Z,76.29
2022-12-25T06:00:28.736Z,76.90
2022-12-25T06:02:55.480Z,76.52
2022-12-25T06:05:21.898Z,76.46
2022-12-25T06:07:48.245Z,76.85
2022-12-25T06:10:14.735Z,76.63
2022-12-25T06:12:41.128Z,76.39
2022-12-25T06:15:08.429Z,76.33
2022-12-25T06:17:34.794Z,76.33
2022-12-25T06:20:01.128Z,75.88
2022-12-25T06:22:32.224Z,75.56
2022-12-25T06:24:59.544Z,76.11
2022-12-25T06:27:26.587Z,76.27
2022-12-25T06:29:53.323Z,76.13
2022-12-25T06:32:19.671Z,75.98
2022-12-25T06:34:46.049Z,76.02
2022-12-25T06:37:12.371Z,75.99
2022-12-25T06:39:38.691Z,75.88
2022-12-25T06:42:05.037Z,75.81
2022-12-25T06:44:31.528Z,75.78
2022-12-25T06:46:57.893Z,76.04
2022-12-25T06:49:24.244Z,75.99
2022-12-25T06:51:50.597Z,75.97
2022-12-25T06:54:16.986Z,75.88
2022-12-25T06:56:43.298Z,76.33
2022-12-25T06:59:10.888Z,76.03
2022-12-25T07:01:46.555Z,75.72
2022-12-25T07:04:35.408Z,76.41
2022-12-25T07:07:08.452Z,76.93
2022-12-25T07:09:36.121Z,77.32
2022-12-25T07:12:19.941Z,77.70
2022-12-25T07:14:48.911Z,77.84
2022-12-25T07:17:19.763Z,77.82
2022-12-25T07:19:46.873Z,77.58
2022-12-25T07:22:13.952Z,77.78
2022-12-25T07:24:40.483Z,77.84
2022-12-25T07:27:06.933Z,77.83
2022-12-25T07:29:33.465Z,77.52
2022-12-25T07:32:00.110Z,78.17
2022-12-25T07:34:26.558Z,78.03
2022-12-25T07:36:54.687Z,78.45
2022-12-25T07:39:21.021Z,78.18
2022-12-25T07:41:47.360Z,78.49
2022-12-25T07:44:13.822Z,78.38
2022-12-25T07:46:40.166Z,78.82
2022-12-25T07:49:06.628Z,79.14
2022-12-25T07:51:32.996Z,79.82
2022-12-25T07:53:59.526Z,79.33
2022-12-25T07:56:26.084Z,79.51
2022-12-25T07:58:52.432Z,79.14
2022-12-25T08:01:24.831Z,79.22
2022-12-25T08:03:56.904Z,78.65
2022-12-25T08:06:29.346Z,79.11
2022-12-25T08:09:06.936Z,78.78
2022-12-25T08:11:33.444Z,78.96
2022-12-25T08:14:00.200Z,78.62
2022-12-25T08:16:26.584Z,78.52
2022-12-25T08:18:53.375Z,77.95
2022-12-25T08:21:19.749Z,77.86
2022-12-25T08:23:47.060Z,77.88
2022-12-25T08:26:19.541Z,78.45
2022-12-25T08:28:47.014Z,79.03
2022-12-25T08:31:17.156Z,78.17
2022-12-25T08:33:44.188Z,78.38
2022-12-25T08:36:11.954Z,78.31
2022-12-25T08:38:38.832Z,78.24
2022-12-25T08:41:05.628Z,78.03
2022-12-25T08:43:31.952Z,77.76
2022-12-25T08:45:58.401Z,77.65
2022-12-25T08:48:25.217Z,77.94
2022-12-25T08:50:53.683Z,77.61
2022-12-25T08:53:20.481Z,77.92
2022-12-25T08:55:46.997Z,77.55
2022-12-25T08:58:14.543Z,78.45
2022-12-25T09:00:41.124Z,78.28
2022-12-25T09:03:07.560Z,77.62
2022-12-25T09:05:37.983Z,77.75
2022-12-25T09:08:04.694Z,77.61
2022-12-25T09:10:31.040Z,77.96
2022-12-25T09:12:57.387Z,78.12
2022-12-25T09:15:23.992Z,77.03
2022-12-25T09:17:50.342Z,77.37
2022-12-25T09:20:16.698Z,77.80
2022-12-25T09:22:43.043Z,77.79
2022-12-25T09:25:09.925Z,78.12
2022-12-25T09:27:36.279Z,78.68
2022-12-25T09:30:03.680Z,78.45
2022-12-25T09:32:30.064Z,78.36
2022-12-25T09:34:56.360Z,78.39
2022-12-25T09:37:22.672Z,78.44
2022-12-25T09:39:48.993Z,77.99
2022-12-25T09:42:20.601Z,77.99
2022-12-25T09:44:55.904Z,77.90
2022-12-25T09:47:30.303Z,77.57
2022-12-25T09:50:03.971Z,77.45
2022-12-25T09:52:44.857Z,77.43
2022-12-25T09:55:19.791Z,77.66
2022-12-25T09:57:52.140Z,78.77
2022-12-25T10:00:23.418Z,78.68
2022-12-25T10:03:22.933Z,78.14
2022-12-25T10:06:09.931Z,77.95
2022-12-25T10:08:57.048Z,78.30
2022-12-25T10:11:40.511Z,78.01
2022-12-25T10:14:24.464Z,77.81
2022-12-25T10:17:23.215Z,77.71
2022-12-25T10:20:02.494Z,78.35
2022-12-25T10:22:38.583Z,78.42
2022-12-25T10:25:06.907Z,77.59
2022-12-25T10:27:41.717Z,77.56
2022-12-25T10:30:21.208Z,77.41
2022-12-25T10:32:48.516Z,77.37
2022-12-25T10:35:18.574Z,77.12
2022-12-25T10:37:51.627Z,77.44
2022-12-25T10:40:23.707Z,77.23
2022-12-25T10:42:56.192Z,77.08
2022-12-25T10:45:22.666Z,77.27
2022-12-25T10:47:55.009Z,77.17
2022-12-25T10:50:28.336Z,77.30
2022-12-25T10:53:09.274Z,77.46
2022-12-25T10:55:35.603Z,77.28
2022-12-25T10:58:02.174Z,77.28
2022-12-25T11:00:31.438Z,77.35
2022-12-25T11:02:58.782Z,77.37
2022-12-25T11:05:34.165Z,77.58
2022-12-25T11:08:02.188Z,77.39
2022-12-25T11:10:43.702Z,77.33
2022-12-25T11:13:20.671Z,77.45
2022-12-25T11:16:00.448Z,77.31
2022-12-25T11:18:30.028Z,77.53
2022-12-25T11:21:15.219Z,77.27
2022-12-25T11:23:48.523Z,77.09
2022-12-25T11:26:15.860Z,77.07
2022-12-25T11:28:43.149Z,77.23
2022-12-25T11:31:19.570Z,77.41
2022-12-25T11:33:54.861Z,77.11
2022-12-25T11:36:36.307Z,76.96
2022-12-25T11:39:23.685Z,76.86
2022-12-25T11:41:56.464Z,76.73
2022-12-25T11:44:31.643Z,76.72
2022-12-25T11:47:12.645Z,77.13
2022-12-25T11:49:50.202Z,77.19
2022-12-25T11:52:18.531Z,77.22
2022-12-25T11:54:54.716Z,77.36
2022-12-25T11:57:23.221Z,77.55
2022-12-25T11:59:56.949Z,77.43
2022-12-25T12:02:32.454Z,77.30
2022-12-25T12:05:09.069Z,76.81
2022-12-25T12:07:37.381Z,76.67
2022-12-25T12:10:19.688Z,76.66
2022-12-25T12:12:52.205Z,77.23
2022-12-25T12:15:35.613Z,76.75
2022-12-25T12:18:16.645Z,76.73
2022-12-25T12:20:43.005Z,76.64
2022-12-25T12:23:17.041Z,76.33
2022-12-25T12:25:44.712Z,76.26
2022-12-25T12:28:22.522Z,76.25
2022-12-25T12:31:18.632Z,75.99
2022-12-25T12:33:57.423Z,75.65
2022-12-25T12:36:35.739Z,76.03
2022-12-25T12:39:05.784Z,76.05
2022-12-25T12:41:47.922Z,76.26
2022-12-25T12:44:17.123Z,76.10
2022-12-25T12:46:55.962Z,76.13
2022-12-25T12:49:25.652Z,75.99
2022-12-25T12:52:30.156Z,76.58
2022-12-25T12:55:04.220Z,76.60
2022-12-25T12:57:35.839Z,76.99
2022-12-25T13:00:09.876Z,77.24
2022-12-25T13:02:43.508Z,77.18
2022-12-25T13:05:34.759Z,78.03
2022-12-25T13:08:20.004Z,78.64
2022-12-25T13:11:06.422Z,78.22
2022-12-25T13:13:40.794Z,78.62
2022-12-25T13:16:16.598Z,78.46
2022-12-25T13:18:43.232Z,78.45
2022-12-25T13:21:19.339Z,79.01
2022-12-25T13:23:45.668Z,78.64
2022-12-25T13:26:15.378Z,79.22
2022-12-25T13:28:41.730Z,79.15
2022-12-25T13:31:14.191Z,80.33
2022-12-25T13:33:45.061Z,81.32
2022-12-25T13:36:12.930Z,82.23
2022-12-25T13:38:48.108Z,82.43
2022-12-25T13:41:45.088Z,82.78
2022-12-25T13:44:24.193Z,82.98
2022-12-25T13:46:50.728Z,82.24
2022-12-25T13:49:19.497Z,82.01
2022-12-25T13:51:46.694Z,83.03
2022-12-25T13:54:15.334Z,83.37
2022-12-25T13:56:51.027Z,83.54
2022-12-25T13:59:20.167Z,83.92
2022-12-25T14:01:47.525Z,84.07
2022-12-25T14:04:24.461Z,84.04
2022-12-25T14:06:52.487Z,83.70
2022-12-25T14:09:19.524Z,83.95
2022-12-25T14:11:50.313Z,84.00
2022-12-25T14:14:23.156Z,84.27
2022-12-25T14:16:53.111Z,84.40
2022-12-25T14:19:28.163Z,84.75
2022-12-25T14:22:02.197Z,84.25
2022-12-25T14:24:30.460Z,83.98
2022-12-25T14:27:02.889Z,83.50
2022-12-25T14:29:36.902Z,82.92
2022-12-25T14:32:06.112Z,82.43
2022-12-25T14:34:34.137Z,82.18
2022-12-25T14:37:03.128Z,81.84
2022-12-25T14:39:29.460Z,81.85
2022-12-25T14:41:56.400Z,82.92
2022-12-25T14:44:34.131Z,83.30
2022-12-25T14:47:20.246Z,83.30
2022-12-25T14:49:47.663Z,83.25
2022-12-25T14:52:19.361Z,83.51
2022-12-25T14:54:48.464Z,83.06
2022-12-25T14:57:26.919Z,82.76
2022-12-25T14:59:59.375Z,83.76
2022-12-25T15:02:26.201Z,84.25
2022-12-25T15:04:53.402Z,84.68
2022-12-25T15:07:31.249Z,83.89
2022-12-25T15:10:27.118Z,84.02
2022-12-25T15:12:43.978Z,83.46
2022-12-25T15:15:10.485Z,83.25
2022-12-25T15:17:38.011Z,82.88
2022-12-25T15:20:05.375Z,83.11
2022-12-25T15:22:54.051Z,83.48
2022-12-25T15:25:20.824Z,83.90
2022-12-25T15:27:47.833Z,83.57
2022-12-25T15:30:14.478Z,83.04
2022-12-25T15:32:40.840Z,81.55
2022-12-25T15:35:13.034Z,80.81
2022-12-25T15:37:39.406Z,81.05
2022-12-25T15:40:06.954Z,80.91
2022-12-25T15:42:33.495Z,81.10
2022-12-25T15:44:59.850Z,81.33
2022-12-25T15:47:26.488Z,81.80
2022-12-25T15:49:52.828Z,83.53
2022-12-25T15:52:19.168Z,84.80
2022-12-25T15:54:45.537Z,84.69
2022-12-25T15:57:22.041Z,84.93
2022-12-25T15:59:48.425Z,85.70
2022-12-25T16:02:20.701Z,85.99
2022-12-25T16:04:47.720Z,86.12
2022-12-25T16:07:23.008Z,86.06
2022-12-25T16:09:49.798Z,86.30
2022-12-25T16:12:16.221Z,86.27
2022-12-25T16:14:42.587Z,86.29
2022-12-25T16:17:12.668Z,86.52
2022-12-25T16:19:39.010Z,86.15
2022-12-25T16:22:23.008Z,86.15
2022-12-25T16:24:50.062Z,86.69
2022-12-25T16:27:16.434Z,86.60
2022-12-25T16:29:42.796Z,86.59
2022-12-25T16:32:13.535Z,86.50
2022-12-25T16:34:40.774Z,86.73
2022-12-25T16:37:07.665Z,87.15
2022-12-25T16:39:34.020Z,87.24
2022-12-25T16:42:00.630Z,87.41
2022-12-25T16:44:27.015Z,87.66
2022-12-25T16:46:53.378Z,87.66
2022-12-25T16:49:19.744Z,87.32
2022-12-25T16:51:46.133Z,87.15
2022-12-25T16:54:12.454Z,86.58
2022-12-25T16:56:38.795Z,86.15
2022-12-25T16:59:05.160Z,87.73
2022-12-25T17:01:31.636Z,88.45
2022-12-25T17:04:01.483Z,87.85
2022-12-25T17:06:28.428Z,87.45
2022-12-25T17:08:57.914Z,86.69
2022-12-25T17:11:27.273Z,86.02
2022-12-25T17:13:54.195Z,84.87
2022-12-25T17:16:23.316Z,84.37
2022-12-25T17:19:16.436Z,83.37
2022-12-25T17:21:42.759Z,83.15
2022-12-25T17:24:09.171Z,82.81
2022-12-25T17:26:35.922Z,82.90
2022-12-25T17:29:02.862Z,82.44
2022-12-25T17:31:29.433Z,82.67
2022-12-25T17:33:55.787Z,82.26
2022-12-25T17:36:22.708Z,81.38
2022-12-25T17:38:49.296Z,81.49
2022-12-25T17:41:17.312Z,81.62
2022-12-25T17:43:45.462Z,83.07
2022-12-25T17:46:17.795Z,83.51
2022-12-25T17:48:45.484Z,83.93
2022-12-25T17:51:14.201Z,85.32
2022-12-25T17:53:42.618Z,86.11
2022-12-25T17:56:10.933Z,86.13
2022-12-25T17:58:38.342Z,86.21
2022-12-25T18:01:06.792Z,85.70
2022-12-25T18:03:33.620Z,84.84
2022-12-25T18:06:00.868Z,84.30
2022-12-25T18:08:31.222Z,84.58
2022-12-25T18:11:04.840Z,85.40
2022-12-25T18:13:32.082Z,86.79
2022-12-25T18:16:03.164Z,87.43
2022-12-25T18:18:30.017Z,87.85
2022-12-25T18:20:56.584Z,89.13
2022-12-25T18:23:23.131Z,89.29
2022-12-25T18:25:49.470Z,89.76
2022-12-25T18:28:16.024Z,90.00
2022-12-25T18:30:43.420Z,91.28
2022-12-25T18:33:09.855Z,92.25
2022-12-25T18:35:42.699Z,92.59
2022-12-25T18:38:10.397Z,93.40
2022-12-25T18:40:45.309Z,94.33
2022-12-25T18:43:11.711Z,94.91
2022-12-25T18:45:38.759Z,95.00
2022-12-25T18:48:06.182Z,94.74
2022-12-25T18:50:37.344Z,94.55
2022-12-25T18:53:04.384Z,93.92
2022-12-25T18:55:31.320Z,93.87
2022-12-25T18:57:58.052Z,94.28
2022-12-25T19:00:25.269Z,93.82
2022-12-25T19:02:57.985Z,92.78
2022-12-25T19:05:25.062Z,92.11
2022-12-25T19:07:51.404Z,92.12
2022-12-25T19:10:18.005Z,92.15
2022-12-25T19:12:44.357Z,92.40
2022-12-25T19:15:10.963Z,91.95
2022-12-25T19:17:37.317Z,91.74
2022-12-25T19:20:05.639Z,91.57
2022-12-25T19:22:32.113Z,90.85
2022-12-25T19:24:58.495Z,90.62
2022-12-25T19:27:24.894Z,91.73
2022-12-25T19:29:51.263Z,92.22
2022-12-25T19:32:17.628Z,92.81
2022-12-25T19:34:44.115Z,93.42
2022-12-25T19:37:10.545Z,93.56
2022-12-25T19:39:37.457Z,94.40
2022-12-25T19:42:03.864Z,94.71
2022-12-25T19:44:30.198Z,94.35
2022-12-25T19:46:56.540Z,94.02
2022-12-25T19:49:22.928Z,94.33
2022-12-25T19:51:49.429Z,93.66
2022-12-25T19:54:18.663Z,92.58
2022-12-25T19:56:45.058Z,92.01
2022-12-25T19:59:12.141Z,91.53
2022-12-25T20:01:39.015Z,92.09
2022-12-25T20:04:08.573Z,92.67
2022-12-25T20:06:38.287Z,93.61
2022-12-25T20:09:12.160Z,93.76
2022-12-25T20:11:39.199Z,93.45
2022-12-25T20:14:07.362Z,93.08
2022-12-25T20:16:36.800Z,92.89
2022-12-25T20:19:04.286Z,92.54
2022-12-25T20:21:30.691Z,91.47
2022-12-25T20:23:57.678Z,90.75
2022-12-25T20:26:30.129Z,90.24
2022-12-25T20:28:57.233Z,89.18
2022-12-25T20:31:28.876Z,88.67
2022-12-25T20:33:57.121Z,88.57
2022-12-25T20:36:23.517Z,88.81
2022-12-25T20:38:50.022Z,87.99
2022-12-25T20:41:28.725Z,87.23
2022-12-25T20:43:56.507Z,86.48
2022-12-25T20:46:23.778Z,85.85
2022-12-25T20:48:50.274Z,85.33
2022-12-25T20:51:22.440Z,85.67
2022-12-25T20:53:49.145Z,85.38
2022-12-25T20:56:17.923Z,84.97
2022-12-25T20:58:44.711Z,84.23
2022-12-25T21:01:14.475Z,83.93
2022-12-25T21:03:41.792Z,83.31
2022-12-25T21:06:09.392Z,83.09
2022-12-25T21:08:36.484Z,83.44
2022-12-25T21:11:04.410Z,83.16
2022-12-25T21:13:36.614Z,83.16
2022-12-25T21:16:07.930Z,82.68
2022-12-25T21:18:34.366Z,82.53
2022-12-25T21:21:05.338Z,82.19
2022-12-25T21:23:32.303Z,81.83
2022-12-25T21:25:58.634Z,81.58
2022-12-25T21:28:30.005Z,81.41
2022-12-25T21:31:02.862Z,82.88
2022-12-25T21:33:47.720Z,83.22
2022-12-25T21:36:14.136Z,84.33
2022-12-25T21:38:40.515Z,84.36
2022-12-25T21:41:10.123Z,84.43
2022-12-25T21:43:38.772Z,83.93
2022-12-25T21:46:07.739Z,84.09
2022-12-25T21:48:35.879Z,84.63
2022-12-25T21:51:31.180Z,85.28
2022-12-25T21:53:58.995Z,87.62
2022-12-25T21:56:28.152Z,87.61
2022-12-25T21:58:54.561Z,87.34
2022-12-25T22:01:21.107Z,86.41
2022-12-25T22:03:47.560Z,86.78
2022-12-25T22:06:32.702Z,88.45
2022-12-25T22:08:59.046Z,87.58
2022-12-25T22:11:45.173Z,87.54
2022-12-25T22:14:52.833Z,87.59
2022-12-25T22:17:46.904Z,90.24
2022-12-25T22:20:29.966Z,90.67
2022-12-25T22:22:57.690Z,90.85
2022-12-25T22:25:24.818Z,91.38
2022-12-25T22:27:51.867Z,91.46
2022-12-25T22:30:24.732Z,91.34
2022-12-25T22:32:52.137Z,91.68
2022-12-25T22:35:18.621Z,92.34
2022-12-25T22:37:45.351Z,92.42
2022-12-25T22:40:14.772Z,92.76
2022-12-25T22:42:41.702Z,92.66
2022-12-25T22:45:08.729Z,92.91
2022-12-25T22:47:35.137Z,93.21
2022-12-25T22:50:01.688Z,93.74
2022-12-25T22:52:28.171Z,93.48
2022-12-25T22:54:54.629Z,92.93
2022-12-25T22:57:20.993Z,92.08
2022-12-25T22:59:47.375Z,90.72
2022-12-25T23:02:13.832Z,90.45
2022-12-25T23:04:40.312Z,90.33
2022-12-25T23:07:06.888Z,90.44
2022-12-25T23:09:34.097Z,90.34
2022-12-25T23:12:00.482Z,90.37
2022-12-25T23:14:39.588Z,90.82
2022-12-25T23:17:30.799Z,90.42
2022-12-25T23:20:17.071Z,90.33
2022-12-25T23:23:02.600Z,90.45
2022-12-25T23:25:48.636Z,90.46
2022-12-25T23:28:35.113Z,89.81
2022-12-25T23:31:01.627Z,89.36
2022-12-25T23:33:28.088Z,89.71
2022-12-25T23:35:54.431Z,89.63
2022-12-25T23:38:20.760Z,90.88
2022-12-25T23:40:47.093Z,91.84
2022-12-25T23:43:13.455Z,91.62
2022-12-25T23:45:39.785Z,91.25
2022-12-25T23:48:06.280Z,90.77
2022-12-25T23:50:33.716Z,89.67
2022-12-25T23:53:00.048Z,89.26
2022-12-25T23:55:26.404Z,89.19
2022-12-25T23:57:52.814Z,90.21
